createdAt,value
2019-02-11T00:00:10.788Z,0.95
2019-02-11T00:02:39.584Z,0.72
2019-02-11T00:07:46.407Z,0.50
2019-02-11T00:10:15.234Z,0.60
2019-02-11T00:12:48.761Z,1.00
2019-02-11T00:15:17.013Z,0.72
2019-02-11T00:17:45.816Z,0.90
2019-02-11T00:20:23.335Z,0.60
2019-02-11T00:22:52.521Z,0.70
2019-02-11T00:25:40.101Z,1.72
2019-02-11T00:28:08.930Z,1.55
2019-02-11T00:30:37.724Z,0.88
2019-02-11T00:33:06.452Z,0.95
2019-02-11T00:35:35.185Z,1.30
2019-02-11T00:38:03.953Z,1.47
2019-02-11T00:40:32.684Z,0.75
2019-02-11T00:43:01.443Z,1.12
2019-02-11T00:45:30.178Z,0.68
2019-02-11T00:47:58.933Z,0.68
2019-02-11T00:50:27.667Z,1.20
2019-02-11T00:52:56.431Z,0.70
2019-02-11T00:55:25.160Z,1.00
2019-02-11T00:57:53.996Z,0.90
2019-02-11T01:00:28.645Z,0.65
2019-02-11T01:03:19.431Z,0.95
2019-02-11T01:05:48.028Z,0.98
2019-02-11T01:08:16.793Z,0.80
2019-02-11T01:10:45.526Z,0.70
2019-02-11T01:13:14.292Z,0.68
2019-02-11T01:15:43.008Z,0.80
2019-02-11T01:18:11.773Z,0.90
2019-02-11T01:20:40.499Z,1.02
2019-02-11T01:23:09.252Z,0.68
2019-02-11T01:25:38.009Z,1.05
2019-02-11T01:28:06.834Z,1.30
2019-02-11T01:30:35.665Z,1.55
2019-02-11T01:33:04.394Z,1.40
2019-02-11T01:35:33.150Z,1.40
2019-02-11T01:38:01.881Z,1.05
2019-02-11T01:40:30.648Z,1.05
2019-02-11T01:42:59.432Z,0.60
2019-02-11T01:45:28.204Z,1.67
2019-02-11T01:47:56.942Z,0.70
2019-02-11T01:50:25.765Z,0.62
2019-02-11T01:52:54.498Z,0.75
2019-02-11T01:55:24.558Z,0.72
2019-02-11T01:58:13.090Z,0.93
2019-02-11T02:00:43.966Z,0.90
2019-02-11T02:03:14.837Z,0.72
2019-02-11T02:05:43.556Z,1.10
2019-02-11T02:08:12.341Z,0.70
2019-02-11T02:10:41.154Z,0.60
2019-02-11T02:13:09.885Z,0.80
2019-02-11T02:15:38.725Z,1.42
2019-02-11T02:18:07.463Z,1.00
2019-02-11T02:20:36.189Z,1.67
2019-02-11T02:23:04.992Z,1.70
2019-02-11T02:25:33.728Z,0.93
2019-02-11T02:28:02.557Z,0.80
2019-02-11T02:30:31.362Z,1.30
2019-02-11T02:33:00.139Z,1.50
2019-02-11T02:35:28.852Z,1.00
2019-02-11T02:37:57.689Z,1.07
2019-02-11T02:40:26.475Z,1.70
2019-02-11T02:42:55.242Z,1.25
2019-02-11T02:45:24.084Z,1.90
2019-02-11T02:47:52.868Z,0.80
2019-02-11T02:50:21.597Z,0.88
2019-02-11T02:52:50.368Z,0.98
2019-02-11T02:55:19.098Z,0.93
2019-02-11T02:57:47.855Z,0.78
2019-02-11T03:00:16.598Z,0.93
2019-02-11T03:02:45.429Z,1.52
2019-02-11T03:05:14.155Z,1.60
2019-02-11T03:07:42.922Z,1.02
2019-02-11T03:10:11.960Z,1.02
2019-02-11T03:12:40.719Z,0.60
2019-02-11T03:15:12.508Z,0.65
2019-02-11T03:17:41.345Z,1.45
2019-02-11T03:20:10.457Z,1.05
2019-02-11T03:22:39.225Z,0.60
2019-02-11T03:25:08.919Z,0.98
2019-02-11T03:27:37.672Z,0.90
2019-02-11T03:30:09.101Z,1.57
2019-02-11T03:32:37.926Z,0.98
2019-02-11T03:35:06.790Z,1.00
2019-02-11T03:37:35.513Z,1.60
2019-02-11T03:40:06.752Z,1.10
2019-02-11T03:42:35.481Z,1.30
2019-02-11T03:45:06.579Z,1.32
2019-02-11T03:47:35.449Z,1.20
2019-02-11T03:50:05.712Z,1.32
2019-02-11T03:52:36.028Z,1.37
2019-02-11T03:55:05.593Z,1.57
2019-02-11T03:57:37.398Z,2.30
2019-02-11T04:00:09.416Z,1.15
2019-02-11T04:02:38.163Z,1.12
2019-02-11T04:05:07.423Z,1.40
2019-02-11T04:07:36.152Z,1.10
2019-02-11T04:10:08.129Z,1.57
2019-02-11T04:12:36.912Z,1.20
2019-02-11T04:15:09.604Z,1.42
2019-02-11T04:17:38.435Z,1.70
2019-02-11T04:20:08.369Z,1.40
2019-02-11T04:22:37.132Z,1.60
2019-02-11T04:25:07.378Z,1.20
2019-02-11T04:27:36.127Z,1.60
2019-02-11T04:30:06.818Z,1.40
2019-02-11T04:32:35.582Z,1.27
2019-02-11T04:35:05.524Z,1.30
2019-02-11T04:37:34.274Z,2.00
2019-02-11T04:40:03.278Z,1.40
2019-02-11T04:42:32.028Z,1.70
2019-02-11T04:45:00.760Z,1.42
2019-02-11T04:47:29.520Z,1.90
2019-02-11T04:49:58.246Z,1.30
2019-02-11T04:52:27.000Z,1.42
2019-02-11T04:54:55.740Z,1.65
2019-02-11T04:57:24.555Z,1.35
2019-02-11T04:59:53.314Z,1.32
2019-02-11T05:02:23.342Z,1.57
2019-02-11T05:04:52.065Z,1.60
2019-02-11T05:07:22.771Z,1.72
2019-02-11T05:09:51.293Z,1.83
2019-02-11T05:12:19.993Z,1.42
2019-02-11T05:14:48.772Z,1.50
2019-02-11T05:17:17.485Z,2.15
2019-02-11T05:19:46.245Z,1.95
2019-02-11T05:22:14.969Z,2.85
2019-02-11T05:24:43.745Z,1.50
2019-02-11T05:27:12.475Z,1.50
2019-02-11T05:29:41.237Z,2.45
2019-02-11T05:32:10.000Z,1.80
2019-02-11T05:34:38.762Z,2.22
2019-02-11T05:37:07.562Z,1.63
2019-02-11T05:39:36.326Z,1.92
2019-02-11T05:42:05.154Z,1.92
2019-02-11T05:44:33.888Z,1.92
2019-02-11T05:47:02.769Z,2.27
2019-02-11T05:49:31.498Z,2.60
2019-02-11T05:52:00.256Z,1.90
2019-02-11T05:54:28.994Z,2.02
2019-02-11T05:56:57.750Z,2.30
2019-02-11T05:59:26.476Z,2.42
2019-02-11T06:01:55.324Z,2.30
2019-02-11T06:04:24.053Z,2.67
2019-02-11T06:06:52.853Z,2.40
2019-02-11T06:09:23.145Z,2.83
2019-02-11T06:11:52.077Z,2.35
2019-02-11T06:14:20.809Z,2.40
2019-02-11T06:16:49.573Z,2.70
2019-02-11T06:19:18.442Z,2.60
2019-02-11T06:21:47.172Z,2.40
2019-02-11T06:24:16.117Z,2.80
2019-02-11T06:26:44.849Z,3.00
2019-02-11T06:29:13.609Z,3.17
2019-02-11T06:31:42.344Z,3.15
2019-02-11T06:34:11.112Z,3.47
2019-02-11T06:36:39.922Z,3.30
2019-02-11T06:39:08.740Z,3.30
2019-02-11T06:41:37.493Z,3.15
2019-02-11T06:44:06.251Z,3.50
2019-02-11T06:46:35.068Z,3.52
2019-02-11T06:49:03.827Z,3.40
2019-02-11T06:51:32.567Z,3.20
2019-02-11T06:54:01.317Z,3.25
2019-02-11T06:56:30.049Z,3.27
2019-02-11T06:58:58.805Z,3.45
2019-02-11T07:01:27.533Z,2.77
2019-02-11T07:03:56.299Z,3.70
2019-02-11T07:06:25.063Z,3.02
2019-02-11T07:08:53.790Z,2.90
2019-02-11T07:11:22.554Z,2.95
2019-02-11T07:13:51.329Z,2.95
2019-02-11T07:16:20.097Z,3.52
2019-02-11T07:18:48.816Z,2.90
2019-02-11T07:21:17.574Z,3.10
2019-02-11T07:23:46.373Z,3.27
2019-02-11T07:26:15.129Z,2.98
2019-02-11T07:28:43.857Z,2.90
2019-02-11T07:31:12.617Z,3.27
2019-02-11T07:33:41.349Z,4.35
2019-02-11T07:36:10.101Z,3.83
2019-02-11T07:38:38.893Z,3.40
2019-02-11T07:41:07.655Z,3.72
2019-02-11T07:43:38.025Z,3.40
2019-02-11T07:46:11.554Z,3.75
2019-02-11T07:48:40.276Z,3.58
2019-02-11T07:51:09.221Z,3.62
2019-02-11T07:53:37.952Z,4.10
2019-02-11T07:56:06.713Z,3.83
2019-02-11T07:58:35.441Z,4.17
2019-02-11T08:01:04.289Z,3.75
2019-02-11T08:03:33.058Z,3.67
2019-02-11T08:06:01.809Z,4.30
2019-02-11T08:08:32.566Z,4.00
2019-02-11T08:11:01.013Z,3.98
2019-02-11T08:13:29.775Z,5.15
2019-02-11T08:15:58.570Z,5.40
2019-02-11T08:18:27.405Z,4.60
2019-02-11T08:20:56.146Z,4.03
2019-02-11T08:23:24.977Z,4.78
2019-02-11T08:25:53.784Z,4.17
2019-02-11T08:28:22.616Z,4.15
2019-02-11T08:30:51.349Z,4.15
2019-02-11T08:33:20.370Z,4.28
2019-02-11T08:35:49.106Z,4.30
2019-02-11T08:38:17.865Z,4.60
2019-02-11T08:40:46.584Z,4.30
2019-02-11T08:43:15.308Z,4.67
2019-02-11T08:45:47.200Z,4.53
2019-02-11T08:48:14.445Z,4.20
2019-02-11T08:50:43.205Z,4.65
2019-02-11T08:53:11.924Z,5.55
2019-02-11T08:55:40.697Z,3.92
2019-02-11T08:58:09.426Z,5.97
2019-02-11T09:00:38.180Z,4.90
2019-02-11T09:03:07.097Z,5.25
2019-02-11T09:05:35.870Z,6.95
2019-02-11T09:08:04.601Z,4.30
2019-02-11T09:10:33.352Z,6.30
2019-02-11T09:13:02.088Z,4.45
2019-02-11T09:15:30.858Z,6.33
2019-02-11T09:17:59.590Z,4.97
2019-02-11T09:20:28.341Z,6.60
2019-02-11T09:22:57.066Z,5.42
2019-02-11T09:25:25.792Z,5.95
2019-02-11T09:27:54.572Z,4.80
2019-02-11T09:30:23.296Z,6.70
2019-02-11T09:32:52.129Z,6.05
2019-02-11T09:35:20.860Z,6.15
2019-02-11T09:37:49.624Z,4.80
2019-02-11T09:40:18.408Z,5.65
2019-02-11T09:42:47.168Z,4.95
2019-02-11T09:45:21.685Z,6.03
2019-02-11T09:47:50.625Z,4.70
2019-02-11T09:50:28.277Z,5.35
2019-02-11T09:52:57.045Z,5.85
2019-02-11T09:55:31.373Z,5.67
2019-02-11T09:58:00.206Z,4.65
2019-02-11T10:00:29.033Z,7.17
2019-02-11T10:02:57.878Z,5.90
2019-02-11T10:05:26.641Z,9.20
2019-02-11T10:07:55.443Z,6.15
2019-02-11T10:10:24.194Z,7.72
2019-02-11T10:12:52.925Z,9.20
2019-02-11T10:15:21.890Z,7.45
2019-02-11T10:17:50.621Z,8.25
2019-02-11T10:20:19.425Z,5.15
2019-02-11T10:22:48.156Z,6.50
2019-02-11T10:25:19.937Z,8.58
2019-02-11T10:27:48.724Z,11.83
2019-02-11T10:30:17.506Z,12.70
2019-02-11T10:32:46.213Z,8.55
2019-02-11T10:35:16.083Z,8.58
2019-02-11T10:37:44.814Z,9.53
2019-02-11T10:40:14.544Z,8.98
2019-02-11T10:42:43.410Z,11.48
2019-02-11T10:45:14.235Z,6.87
2019-02-11T10:47:45.173Z,10.45
2019-02-11T10:50:18.180Z,16.45
2019-02-11T10:52:47.009Z,22.13
2019-02-11T10:55:17.737Z,7.03
2019-02-11T10:57:46.696Z,7.08
2019-02-11T11:00:22.760Z,7.85
2019-02-11T11:02:51.518Z,6.53
2019-02-11T11:05:20.309Z,4.40
2019-02-11T11:07:49.169Z,5.53
2019-02-11T11:10:23.497Z,5.85
2019-02-11T11:12:52.337Z,4.90
2019-02-11T11:15:21.138Z,6.30
2019-02-11T11:17:49.957Z,5.28
2019-02-11T11:20:19.085Z,5.67
2019-02-11T11:22:47.949Z,5.45
2019-02-11T11:25:18.226Z,6.65
2019-02-11T11:27:46.997Z,4.42
2019-02-11T11:30:16.865Z,5.33
2019-02-11T11:32:46.089Z,6.53
2019-02-11T11:35:16.719Z,5.72
2019-02-11T11:37:45.642Z,6.03
2019-02-11T11:40:19.493Z,5.05
2019-02-11T11:42:48.227Z,6.00
2019-02-11T11:45:20.813Z,5.67
2019-02-11T11:47:49.602Z,5.78
2019-02-11T11:50:18.526Z,5.35
2019-02-11T11:52:47.459Z,5.97
2019-02-11T11:55:19.251Z,6.75
2019-02-11T11:57:47.994Z,6.10
2019-02-11T12:00:22.287Z,7.55
2019-02-11T12:03:01.453Z,6.33
2019-02-11T12:05:21.704Z,6.20
2019-02-11T12:07:50.528Z,6.75
2019-02-11T12:10:19.339Z,6.95
2019-02-11T12:12:48.096Z,6.00
2019-02-11T12:15:19.021Z,7.37
2019-02-11T12:17:48.064Z,6.47
2019-02-11T12:20:17.119Z,6.62
2019-02-11T12:22:45.890Z,6.40
2019-02-11T12:25:18.606Z,6.45
2019-02-11T12:27:47.437Z,6.95
2019-02-11T12:30:21.556Z,6.28
2019-02-11T12:32:54.010Z,6.87
2019-02-11T12:35:20.805Z,6.65
2019-02-11T12:37:49.584Z,6.75
2019-02-11T12:40:18.300Z,7.90
2019-02-11T12:42:47.145Z,9.83
2019-02-11T12:45:23.996Z,5.75
2019-02-11T12:47:52.779Z,6.43
2019-02-11T12:50:21.557Z,5.20
2019-02-11T12:52:50.342Z,6.53
2019-02-11T12:55:19.478Z,6.50
2019-02-11T12:57:48.321Z,7.43
2019-02-11T13:00:22.232Z,6.58
2019-02-11T13:02:51.376Z,7.60
2019-02-11T13:05:23.261Z,7.35
2019-02-11T13:07:50.758Z,5.07
2019-02-11T13:10:20.703Z,5.55
2019-02-11T13:12:49.554Z,7.35
2019-02-11T13:15:52.667Z,5.50
2019-02-11T13:17:49.881Z,6.22
2019-02-11T13:20:19.837Z,6.97
2019-02-11T13:22:48.742Z,8.03
2019-02-11T13:25:18.582Z,6.58
2019-02-11T13:27:47.598Z,6.72
2019-02-11T13:30:21.301Z,5.78
2019-02-11T13:32:50.085Z,5.87
2019-02-11T13:35:18.958Z,6.78
2019-02-11T13:37:47.678Z,7.85
2019-02-11T13:40:16.491Z,6.97
2019-02-11T13:42:45.437Z,6.47
2019-02-11T13:45:17.734Z,6.65
2019-02-11T13:47:55.034Z,7.55
2019-02-11T13:50:25.010Z,7.00
2019-02-11T13:52:54.325Z,4.78
2019-02-11T13:55:23.564Z,5.78
2019-02-11T13:57:52.905Z,4.73
2019-02-11T14:00:27.676Z,6.97
2019-02-11T14:03:01.848Z,6.42
2019-02-11T14:05:31.381Z,5.90
2019-02-11T14:08:01.649Z,6.17
2019-02-11T14:10:31.053Z,6.08
2019-02-11T14:13:00.400Z,7.85
2019-02-11T14:15:29.331Z,5.55
2019-02-11T14:18:12.033Z,5.28
2019-02-11T14:20:34.293Z,6.95
2019-02-11T14:23:03.356Z,4.73
2019-02-11T14:25:42.124Z,3.58
2019-02-11T14:28:02.765Z,3.87
2019-02-11T14:30:31.550Z,6.65
2019-02-11T14:33:00.295Z,5.92
2019-02-11T14:35:29.077Z,6.45
2019-02-11T14:38:01.835Z,5.15
2019-02-11T14:40:28.236Z,5.22
2019-02-11T14:42:56.946Z,5.53
2019-02-11T14:45:25.716Z,5.40
2019-02-11T14:47:54.498Z,4.90
2019-02-11T14:50:23.278Z,6.03
2019-02-11T14:52:52.008Z,5.58
2019-02-11T14:55:20.769Z,7.07
2019-02-11T14:57:49.601Z,6.40
2019-02-11T15:00:21.022Z,5.75
2019-02-11T15:02:49.913Z,4.05
2019-02-11T15:05:20.397Z,6.60
2019-02-11T15:07:49.257Z,7.85
2019-02-11T15:10:19.564Z,6.63
2019-02-11T15:12:48.622Z,5.85
2019-02-11T15:15:17.459Z,6.80
2019-02-11T15:17:46.893Z,6.40
2019-02-11T15:20:16.713Z,4.40
2019-02-11T15:22:45.457Z,5.50
2019-02-11T15:25:18.837Z,5.87
2019-02-11T15:27:47.608Z,6.30
2019-02-11T15:30:18.348Z,5.22
2019-02-11T15:32:47.157Z,5.33
2019-02-11T15:35:15.958Z,6.53
2019-02-11T15:37:44.791Z,4.55
2019-02-11T15:40:19.209Z,6.12
2019-02-11T15:42:47.975Z,6.15
2019-02-11T15:45:16.712Z,3.87
2019-02-11T15:47:45.667Z,4.90
2019-02-11T15:50:16.368Z,6.72
2019-02-11T15:52:45.365Z,5.42
2019-02-11T15:55:18.859Z,5.72
2019-02-11T15:57:47.629Z,4.72
2019-02-11T16:00:25.317Z,3.75
2019-02-11T16:02:54.077Z,5.92
2019-02-11T16:05:22.910Z,4.75
2019-02-11T16:07:51.636Z,4.33
2019-02-11T16:10:26.038Z,5.10
2019-02-11T16:12:54.857Z,4.10
2019-02-11T16:15:23.584Z,4.40
2019-02-11T16:17:52.316Z,5.10
2019-02-11T16:20:21.684Z,5.55
2019-02-11T16:22:50.395Z,5.83
2019-02-11T16:25:19.150Z,6.08
2019-02-11T16:27:47.877Z,5.87
2019-02-11T16:30:18.309Z,5.83
2019-02-11T16:32:47.041Z,5.87
2019-02-11T16:35:17.012Z,5.83
2019-02-11T16:37:47.473Z,5.17
2019-02-11T16:40:28.413Z,6.25
2019-02-11T16:42:57.541Z,5.40
2019-02-11T16:45:26.730Z,6.42
2019-02-11T16:47:55.761Z,8.10
2019-02-11T16:50:24.481Z,8.18
2019-02-11T16:52:53.512Z,4.40
2019-02-11T16:55:22.405Z,4.95
2019-02-11T16:57:51.399Z,7.35
2019-02-11T17:00:20.983Z,6.00
2019-02-11T17:02:49.829Z,5.70
2019-02-11T17:05:20.087Z,5.35
2019-02-11T17:07:49.151Z,5.42
2019-02-11T17:10:17.906Z,5.95
2019-02-11T17:12:46.736Z,6.20
2019-02-11T17:15:19.873Z,5.28
2019-02-11T17:17:49.526Z,4.53
2019-02-11T17:20:18.502Z,5.47
2019-02-11T17:22:47.331Z,5.20
2019-02-11T17:25:16.279Z,4.95
2019-02-11T17:27:45.033Z,6.78
2019-02-11T17:30:22.394Z,5.70
2019-02-11T17:32:51.354Z,6.55
2019-02-11T17:35:20.077Z,4.42
2019-02-11T17:37:48.845Z,3.92
2019-02-11T17:40:21.706Z,5.62
2019-02-11T17:42:50.442Z,3.77
2019-02-11T17:45:26.825Z,5.00
2019-02-11T17:47:55.646Z,3.87
2019-02-11T17:50:24.405Z,4.60
2019-02-11T17:52:56.516Z,5.95
2019-02-11T17:55:25.340Z,4.80
2019-02-11T17:57:54.182Z,4.95
2019-02-11T18:00:31.407Z,6.25
2019-02-11T18:03:00.132Z,6.30
2019-02-11T18:05:30.689Z,5.85
2019-02-11T18:07:59.448Z,3.85
2019-02-11T18:10:38.889Z,4.28
2019-02-11T18:13:08.842Z,4.78
2019-02-11T18:15:45.250Z,5.67
2019-02-11T18:18:14.078Z,5.47
2019-02-11T18:20:44.135Z,4.73
2019-02-11T18:23:12.858Z,5.20
2019-02-11T18:25:41.739Z,5.30
2019-02-11T18:28:10.467Z,6.83
2019-02-11T18:30:40.036Z,5.47
2019-02-11T18:33:08.902Z,4.60
2019-02-11T18:35:37.638Z,6.50
2019-02-11T18:38:08.187Z,5.95
2019-02-11T18:40:37.067Z,5.78
2019-02-11T18:43:05.902Z,6.83
2019-02-11T18:45:34.705Z,5.13
2019-02-11T18:48:03.534Z,6.17
2019-02-11T18:50:32.433Z,5.97
2019-02-11T18:53:01.471Z,5.12
2019-02-11T18:55:30.288Z,4.35
2019-02-11T18:58:02.591Z,5.20
2019-02-11T19:00:31.449Z,3.77
2019-02-11T19:03:01.333Z,5.23
2019-02-11T19:05:32.417Z,6.70
2019-02-11T19:08:02.629Z,4.50
2019-02-11T19:10:31.442Z,6.30
2019-02-11T19:13:00.233Z,4.90
2019-02-11T19:15:28.966Z,5.80
2019-02-11T19:17:57.829Z,6.40
2019-02-11T19:20:27.090Z,5.08
2019-02-11T19:22:56.005Z,8.75
2019-02-11T19:25:24.813Z,6.20
2019-02-11T19:27:53.590Z,4.97
2019-02-11T19:30:25.089Z,6.92
2019-02-11T19:32:53.839Z,6.55
2019-02-11T19:35:22.708Z,6.80
2019-02-11T19:37:51.512Z,5.90
2019-02-11T19:40:21.040Z,5.87
2019-02-11T19:42:50.247Z,6.10
2019-02-11T19:45:23.898Z,7.95
2019-02-11T19:47:53.590Z,6.20
2019-02-11T19:50:22.305Z,5.60
2019-02-11T19:52:51.440Z,6.33
2019-02-11T19:55:20.243Z,6.12
2019-02-11T19:57:49.046Z,6.28
2019-02-11T20:00:22.607Z,5.25
2019-02-11T20:02:51.711Z,5.20
2019-02-11T20:05:21.011Z,5.17
2019-02-11T20:07:49.934Z,6.40
2019-02-11T20:10:25.637Z,7.03
2019-02-11T20:12:54.457Z,6.90
2019-02-11T20:15:31.581Z,5.10
2019-02-11T20:18:00.420Z,5.75
2019-02-11T20:20:29.156Z,6.25
2019-02-11T20:22:57.981Z,6.00
2019-02-11T20:25:26.705Z,5.78
2019-02-11T20:27:55.537Z,5.42
2019-02-11T20:30:28.861Z,5.95
2019-02-11T20:32:57.667Z,5.62
2019-02-11T20:35:26.405Z,5.00
2019-02-11T20:37:55.162Z,5.00
2019-02-11T20:40:26.073Z,5.28
2019-02-11T20:42:54.829Z,5.30
2019-02-11T20:45:28.236Z,6.37
2019-02-11T20:47:57.072Z,5.50
2019-02-11T20:50:30.921Z,4.83
2019-02-11T20:52:59.247Z,5.37
2019-02-11T20:55:28.018Z,4.53
2019-02-11T20:57:59.553Z,4.37
2019-02-11T21:00:28.409Z,6.33
2019-02-11T21:02:57.145Z,5.42
2019-02-11T21:05:25.933Z,4.92
2019-02-11T21:07:54.790Z,4.25
2019-02-11T21:10:26.789Z,4.12
2019-02-11T21:12:55.517Z,3.83
2019-02-11T21:15:24.481Z,5.97
2019-02-11T21:17:53.305Z,4.47
2019-02-11T21:20:39.902Z,6.67
2019-02-11T21:23:10.220Z,7.62
2019-02-11T21:25:38.969Z,4.87
2019-02-11T21:28:07.733Z,5.37
2019-02-11T21:30:36.585Z,4.28
2019-02-11T21:33:05.324Z,5.62
2019-02-11T21:35:34.085Z,5.42
2019-02-11T21:38:02.886Z,6.80
2019-02-11T21:40:31.642Z,5.03
2019-02-11T21:43:00.372Z,4.08
2019-02-11T21:45:29.134Z,4.83
2019-02-11T21:47:58.009Z,4.95
2019-02-11T21:50:27.178Z,4.25
2019-02-11T21:52:56.014Z,4.03
2019-02-11T21:55:25.729Z,5.35
2019-02-11T21:57:54.489Z,3.62
2019-02-11T22:00:23.815Z,3.67
2019-02-11T22:02:52.583Z,3.33
2019-02-11T22:05:21.313Z,5.33
2019-02-11T22:07:50.037Z,2.75
2019-02-11T22:10:23.152Z,3.45
2019-02-11T22:12:51.953Z,3.37
2019-02-11T22:15:20.721Z,3.40
2019-02-11T22:17:49.585Z,3.25
2019-02-11T22:20:20.313Z,4.05
2019-02-11T22:22:49.306Z,3.00
2019-02-11T22:25:18.072Z,3.70
2019-02-11T22:27:46.801Z,5.47
2019-02-11T22:30:20.738Z,4.20
2019-02-11T22:32:49.470Z,5.28
2019-02-11T22:35:18.230Z,5.27
2019-02-11T22:37:48.802Z,7.03
2019-02-11T22:40:17.538Z,7.67
2019-02-11T22:42:46.293Z,10.10
2019-02-11T22:45:19.938Z,8.33
2019-02-11T22:47:48.696Z,7.45
2019-02-11T22:50:17.510Z,8.30
2019-02-11T22:52:46.267Z,9.13
2019-02-11T22:55:15.729Z,9.50
2019-02-11T22:57:44.496Z,8.98
2019-02-11T23:00:46.273Z,9.03
2019-02-11T23:03:15.631Z,9.83
2019-02-11T23:05:44.341Z,8.80
2019-02-11T23:08:14.939Z,8.35
2019-02-11T23:10:43.638Z,8.38
2019-02-11T23:13:12.466Z,8.23
2019-02-11T23:15:41.300Z,8.28
2019-02-11T23:18:10.022Z,8.27
2019-02-11T23:20:38.849Z,8.53
2019-02-11T23:23:07.576Z,8.83
2019-02-11T23:25:36.340Z,9.75
2019-02-11T23:28:05.078Z,10.75
2019-02-11T23:30:33.902Z,8.20
2019-02-11T23:33:02.628Z,7.92
2019-02-11T23:35:31.394Z,8.58
2019-02-11T23:38:00.130Z,11.22
2019-02-11T23:40:28.893Z,9.53
2019-02-11T23:42:57.608Z,9.00
2019-02-11T23:45:26.437Z,12.00
2019-02-11T23:47:55.173Z,8.58
2019-02-11T23:50:23.997Z,9.80
2019-02-11T23:52:52.786Z,9.75
2019-02-11T23:55:21.517Z,11.97
2019-02-11T23:57:50.299Z,11.90
